16:36
Airports
History
Links
Donate
Help keep this website running!
PayPal
Bitcoin
This page is community maintained. The information is intended for PC simulator navigation or reference.
Always use approved charts for navigation.
SKMD
Medellin Olaya Herrera
Medellin Olaya Herrera (SKMD)
Medellín, Antioquia, Colombia (50024)
(C)
Lat/Lng:6° 13' 11.85" N / 75° 35' 25.87" W
6.219959 / -75.59052
Elevation:4940'ft / 1506mMSL
ID / ICAO:SKMD
Runways:1
Longest:02-20
Asphalt 2,527m / 8,290ft
Controlled:Yes
METAR16:00 GMT 2017-09-23
Altimeter: 30.16
Visibility: 6.2 statute miles
Wind: 0 knots (from 000°)
Temp: 23°c / 73°f
Humidity: 60.7%

METAR: SKMD 231600Z 00000KT 9999 FEW030 SCT100 23/15 A3016

(Powered by phpweather)
Airport Radio Frequencies
Ground: 121.9
Tower: 118.9
Approach: 121.1
Nearby VORs <50NM
Nearby NDBs
Runway 02 / 20
Dimensions:2526.7 x 45.1m 8290' x 148'ft
Surface:Asphalt
Runway 02 [A]Runway 20 [B]
Heading:010°TH 190°TH
Lat:
Lng:
6° 12' 31.5"N
75° 35' 33.51"W
6° 13' 52.2"N
75° 35' 18.23"W
User Notes and Comments
6° 13' 11.85" N / 75° 35' 25.87" W
Distance To
Airport ID:
Nearby Airports
(C) JOSE MARIA CORDOVA 12.1 NM
SKRG ( WX ) ESE 108°
(U) PUERTO NARE 68.7 NM
SKPN E 90°
(C) VELASQUEZ 80.3 NM
SKVL ESE 103°
(C) EL CARANO 80.9 NM
SKUI ( WX ) WSW 243°
(C) OTU 81.2 NM
SKOT NE 47°
(C) GERMAN OLANO AB 81.9 NM
SKPQ SE 128°
(C) LA NUBIA 82.7 NM
SKMZ S 173°
VFR Chart
Flight Planning at SkyVector.com